createdAt,value
2022-11-25T00:00:51.185Z,101206.25
2022-11-25T00:03:18.880Z,101204.47
2022-11-25T00:05:46.493Z,101202.66
2022-11-25T00:08:13.949Z,101193.13
2022-11-25T00:10:41.472Z,101194.00
2022-11-25T00:13:08.991Z,101197.34
2022-11-25T00:15:36.488Z,101194.72
2022-11-25T00:18:05.344Z,101195.63
2022-11-25T00:20:32.788Z,101191.31
2022-11-25T00:23:00.855Z,101195.56
2022-11-25T00:25:28.360Z,101191.25
2022-11-25T00:27:55.878Z,101198.06
2022-11-25T00:30:25.029Z,101192.84
2022-11-25T00:32:54.091Z,101197.06
2022-11-25T00:35:22.996Z,101179.81
2022-11-25T00:37:50.489Z,101192.69
2022-11-25T00:40:18.311Z,101196.16
2022-11-25T00:43:14.877Z,101197.81
2022-11-25T00:45:43.336Z,101203.81
2022-11-25T00:48:10.933Z,101202.06
2022-11-25T00:50:39.831Z,101197.75
2022-11-25T00:53:07.345Z,101196.00
2022-11-25T00:55:54.963Z,101193.47
2022-11-25T00:58:22.539Z,101196.91
2022-11-25T01:00:50.376Z,101208.94
2022-11-25T01:03:17.943Z,101200.34
2022-11-25T01:05:46.856Z,101200.34
2022-11-25T01:08:14.777Z,101210.63
2022-11-25T01:10:42.310Z,101204.56
2022-11-25T01:13:09.862Z,101200.19
2022-11-25T01:15:37.777Z,101205.38
2022-11-25T01:18:05.401Z,101207.94
2022-11-25T01:20:33.684Z,101201.03
2022-11-25T01:23:02.558Z,101207.03
2022-11-25T01:25:30.104Z,101203.63
2022-11-25T01:27:57.631Z,101197.59
2022-11-25T01:30:25.142Z,101202.78
2022-11-25T01:32:54.183Z,101203.56
2022-11-25T01:35:21.728Z,101205.22
2022-11-25T01:37:49.240Z,101201.75
2022-11-25T01:40:18.312Z,101200.94
2022-11-25T01:42:47.754Z,101195.72
2022-11-25T01:45:34.751Z,101192.22
2022-11-25T01:48:12.397Z,101186.22
2022-11-25T01:50:41.292Z,101183.69
2022-11-25T01:53:12.790Z,101187.97
2022-11-25T01:55:45.793Z,101181.97
2022-11-25T01:58:17.005Z,101189.63
2022-11-25T02:00:51.127Z,101184.47
2022-11-25T02:03:23.237Z,101188.75
2022-11-25T02:05:57.299Z,101176.75
2022-11-25T02:08:27.292Z,101172.41
2022-11-25T02:10:56.645Z,101172.34
2022-11-25T02:13:25.177Z,101173.19
2022-11-25T02:15:52.852Z,101175.78
2022-11-25T02:18:32.800Z,101181.78
2022-11-25T02:21:00.570Z,101176.59
2022-11-25T02:23:35.798Z,101180.03
2022-11-25T02:26:05.769Z,101175.78
2022-11-25T02:28:34.600Z,101171.47
2022-11-25T02:31:04.394Z,101170.66
2022-11-25T02:33:32.543Z,101170.59
2022-11-25T02:36:02.661Z,101175.78
2022-11-25T02:38:35.563Z,101174.06
2022-11-25T02:41:08.901Z,101161.16
2022-11-25T02:43:36.509Z,101160.31
2022-11-25T02:46:06.774Z,101164.59
2022-11-25T02:49:06.838Z,101175.78
2022-11-25T02:51:26.427Z,101170.53
2022-11-25T02:53:54.412Z,101172.22
2022-11-25T02:56:27.703Z,101166.22
2022-11-25T02:58:55.308Z,101170.50
2022-11-25T03:01:25.678Z,101173.91
2022-11-25T03:03:53.230Z,101180.84
2022-11-25T03:06:20.854Z,101173.13
2022-11-25T03:08:49.648Z,101174.03
2022-11-25T03:11:18.600Z,101191.19
2022-11-25T03:13:47.519Z,101184.34
2022-11-25T03:16:16.606Z,101180.94
2022-11-25T03:18:45.337Z,101191.28
2022-11-25T03:21:12.806Z,101193.91
2022-11-25T03:23:40.308Z,101189.63
2022-11-25T03:26:08.264Z,101182.75
2022-11-25T03:28:35.829Z,101184.34
2022-11-25T03:31:04.727Z,101186.94
2022-11-25T03:33:32.678Z,101195.47
2022-11-25T03:36:00.388Z,101192.94
2022-11-25T03:38:27.879Z,101183.47
2022-11-25T03:40:55.428Z,101180.03
2022-11-25T03:43:22.961Z,101195.53
2022-11-25T03:45:51.046Z,101196.34
2022-11-25T03:48:19.975Z,101198.88
2022-11-25T03:50:49.309Z,101201.41
2022-11-25T03:53:16.844Z,101195.28
2022-11-25T03:55:44.574Z,101196.97
2022-11-25T03:58:12.182Z,101202.16
2022-11-25T04:00:40.178Z,101198.66
2022-11-25T04:03:07.746Z,101204.63
2022-11-25T04:05:36.592Z,101196.88
2022-11-25T04:08:07.623Z,101196.81
2022-11-25T04:10:36.688Z,101194.19
2022-11-25T04:13:04.626Z,101204.44
2022-11-25T04:15:38.183Z,101197.56
2022-11-25T04:18:06.696Z,101192.38
2022-11-25T04:20:36.124Z,101197.50
2022-11-25T04:23:06.503Z,101201.75
2022-11-25T04:25:37.606Z,101196.59
2022-11-25T04:28:12.770Z,101206.88
2022-11-25T04:30:41.535Z,101204.31
2022-11-25T04:33:09.089Z,101204.25
2022-11-25T04:35:37.884Z,101203.38
2022-11-25T04:38:05.369Z,101212.00
2022-11-25T04:40:35.620Z,101219.75
2022-11-25T04:43:14.795Z,101219.72
2022-11-25T04:48:38.219Z,101228.34
2022-11-25T04:51:07.336Z,101235.22
2022-11-25T04:53:34.788Z,101225.72
2022-11-25T04:56:02.357Z,101227.41
2022-11-25T04:58:52.965Z,101225.66
2022-11-25T05:01:20.482Z,101239.41
2022-11-25T05:03:57.131Z,101225.56
2022-11-25T05:06:27.215Z,101233.31
2022-11-25T05:08:55.204Z,101219.56
2022-11-25T05:11:25.229Z,101226.44
2022-11-25T05:13:53.577Z,101232.50
2022-11-25T05:16:21.346Z,101228.19
2022-11-25T05:18:48.964Z,101224.84
2022-11-25T05:21:17.386Z,101222.31
2022-11-25T05:23:48.775Z,101219.81
2022-11-25T05:26:19.383Z,101231.03
2022-11-25T05:28:50.592Z,101237.97
2022-11-25T05:31:18.262Z,101234.50
2022-11-25T05:33:45.967Z,101231.91
2022-11-25T05:36:15.158Z,101238.69
2022-11-25T05:38:47.293Z,101234.44
2022-11-25T05:41:20.630Z,101240.50
2022-11-25T05:43:48.249Z,101248.25
2022-11-25T05:46:16.593Z,101244.00
2022-11-25T05:48:48.462Z,101245.66
2022-11-25T05:51:16.054Z,101248.31
2022-11-25T05:53:43.733Z,101240.59
2022-11-25T05:56:12.594Z,101243.19
2022-11-25T05:58:56.244Z,101240.59
2022-11-25T06:01:28.496Z,101245.78
2022-11-25T06:03:55.983Z,101247.47
2022-11-25T06:06:23.512Z,101248.25
2022-11-25T06:08:51.051Z,101255.97
2022-11-25T06:11:19.914Z,101261.91
2022-11-25T06:13:47.539Z,101250.66
2022-11-25T06:16:16.804Z,101251.47
2022-11-25T06:18:46.703Z,101250.66
2022-11-25T06:21:14.932Z,101250.69
2022-11-25T06:23:44.759Z,101251.53
2022-11-25T06:26:15.864Z,101248.09
2022-11-25T06:28:45.593Z,101244.69
2022-11-25T06:31:16.553Z,101245.56
2022-11-25T06:33:55.500Z,101248.25
2022-11-25T06:36:23.996Z,101244.06
2022-11-25T06:38:53.012Z,101239.78
2022-11-25T06:41:21.196Z,101234.66
2022-11-25T06:43:50.472Z,101239.91
2022-11-25T06:46:24.528Z,101243.41
2022-11-25T06:48:52.910Z,101234.84
2022-11-25T06:51:20.456Z,101237.47
2022-11-25T06:53:48.013Z,101245.19
2022-11-25T06:56:18.106Z,101246.09
2022-11-25T06:58:47.892Z,101244.50
2022-11-25T07:01:19.181Z,101245.41
2022-11-25T07:03:48.488Z,101248.06
2022-11-25T07:06:17.545Z,101262.69
2022-11-25T07:08:45.201Z,101280.78
2022-11-25T07:11:18.017Z,101273.91
2022-11-25T07:13:45.900Z,101268.72
2022-11-25T07:16:14.166Z,101267.91
2022-11-25T07:18:43.483Z,101265.44
2022-11-25T07:21:13.744Z,101280.16
2022-11-25T07:23:42.637Z,101280.16
2022-11-25T07:26:12.543Z,101292.19
2022-11-25T07:28:41.903Z,101288.75
2022-11-25T07:34:01.672Z,101304.22
2022-11-25T07:36:30.789Z,101302.44
2022-11-25T07:38:59.647Z,101311.81
2022-11-25T07:41:28.327Z,101300.59
2022-11-25T07:43:58.583Z,101313.47
2022-11-25T07:46:28.573Z,101315.22
2022-11-25T07:48:57.791Z,101316.03
2022-11-25T07:51:31.650Z,101321.25
2022-11-25T07:54:01.453Z,101323.00
2022-11-25T07:56:30.048Z,101310.13
2022-11-25T07:58:59.295Z,101316.19
2022-11-25T08:01:26.941Z,101311.84
2022-11-25T08:03:55.340Z,101298.13
2022-11-25T08:06:25.168Z,101299.78
2022-11-25T08:08:55.681Z,101300.69
2022-11-25T08:11:25.921Z,101298.03
2022-11-25T08:13:53.966Z,101298.94
2022-11-25T08:16:23.615Z,101295.56
2022-11-25T08:18:51.437Z,101309.22
2022-11-25T08:21:19.887Z,101306.59
2022-11-25T08:23:48.857Z,101308.19
2022-11-25T08:26:21.627Z,101320.16
2022-11-25T08:28:50.088Z,101327.03
2022-11-25T08:31:20.221Z,101313.22
2022-11-25T08:33:48.711Z,101314.84
2022-11-25T08:36:17.124Z,101318.16
2022-11-25T08:38:46.492Z,101306.91
2022-11-25T08:41:16.041Z,101317.19
2022-11-25T08:43:45.261Z,101316.19
2022-11-25T08:46:14.949Z,101332.38
2022-11-25T08:48:43.414Z,101327.97
2022-11-25T08:51:13.653Z,101324.44
2022-11-25T08:53:41.587Z,101326.09
2022-11-25T08:56:09.718Z,101332.84
2022-11-25T08:58:39.121Z,101333.66
2022-11-25T09:01:11.137Z,101327.50
2022-11-25T09:03:41.109Z,101331.69
2022-11-25T09:06:10.248Z,101335.03
2022-11-25T09:08:41.043Z,101334.88
2022-11-25T09:11:09.572Z,101340.88
2022-11-25T09:13:38.008Z,101343.38
2022-11-25T09:16:07.147Z,101333.75
2022-11-25T09:18:37.181Z,101336.34
2022-11-25T09:21:10.543Z,101338.03
2022-11-25T09:23:39.146Z,101343.09
2022-11-25T09:26:08.911Z,101349.06
2022-11-25T09:28:36.953Z,101342.09
2022-11-25T09:31:10.012Z,101348.97
2022-11-25T09:33:39.205Z,101346.19
2022-11-25T09:36:07.582Z,101338.28
2022-11-25T09:38:40.158Z,101338.97
2022-11-25T09:41:42.747Z,101339.81
2022-11-25T09:44:42.463Z,101345.78
2022-11-25T09:47:18.367Z,101335.28
2022-11-25T09:50:09.369Z,101340.31
2022-11-25T09:52:51.537Z,101340.22
2022-11-25T09:55:23.004Z,101340.09
2022-11-25T09:58:05.931Z,101339.16
2022-11-25T10:00:42.397Z,101334.81
2022-11-25T10:03:19.756Z,101332.16
2022-11-25T10:05:58.388Z,101332.91
2022-11-25T10:08:30.532Z,101336.22
2022-11-25T10:11:06.733Z,101333.56
2022-11-25T10:13:45.372Z,101332.72
2022-11-25T10:16:31.637Z,101341.38
2022-11-25T10:19:02.840Z,101325.91
2022-11-25T10:21:32.308Z,101331.94
2022-11-25T10:24:00.037Z,101331.78
2022-11-25T10:26:34.326Z,101318.69
2022-11-25T10:29:21.295Z,101323.00
2022-11-25T10:31:52.810Z,101321.28
2022-11-25T10:34:29.215Z,101322.25
2022-11-25T10:36:59.715Z,101318.84
2022-11-25T10:39:31.662Z,101317.13
2022-11-25T10:42:04.659Z,101314.59
2022-11-25T10:44:35.638Z,101319.84
2022-11-25T10:47:25.380Z,101319.84
2022-11-25T10:50:04.939Z,101318.91
2022-11-25T10:52:38.775Z,101326.47
2022-11-25T10:55:13.138Z,101329.88
2022-11-25T10:57:40.849Z,101317.69
2022-11-25T11:00:25.090Z,101326.97
2022-11-25T11:02:52.836Z,101315.56
2022-11-25T11:05:24.114Z,101324.03
2022-11-25T11:11:11.676Z,101331.53
2022-11-25T11:13:39.656Z,101328.75
2022-11-25T11:16:24.556Z,101326.75
2022-11-25T11:18:52.542Z,101336.91
2022-11-25T11:21:26.297Z,101333.34
2022-11-25T11:23:55.919Z,101339.25
2022-11-25T11:26:28.882Z,101332.25
2022-11-25T11:29:03.909Z,101329.56
2022-11-25T11:31:39.693Z,101313.94
2022-11-25T11:34:28.265Z,101318.13
2022-11-25T11:37:21.887Z,101330.00
2022-11-25T11:40:00.702Z,101312.56
2022-11-25T11:42:40.575Z,101315.03
2022-11-25T11:45:24.312Z,101318.34
2022-11-25T11:48:07.216Z,101320.00
2022-11-25T11:50:40.507Z,101322.41
2022-11-25T11:53:14.668Z,101322.19
2022-11-25T11:56:19.026Z,101316.88
2022-11-25T11:59:00.869Z,101313.22
2022-11-25T12:01:44.082Z,101313.84
2022-11-25T12:04:20.251Z,101315.41
2022-11-25T12:06:59.810Z,101315.09
2022-11-25T12:09:32.896Z,101305.28
2022-11-25T12:12:08.386Z,101311.13
2022-11-25T12:14:42.180Z,101295.31
2022-11-25T12:17:16.196Z,101312.28
2022-11-25T12:19:53.229Z,101304.19
2022-11-25T12:22:26.465Z,101299.63
2022-11-25T12:25:02.635Z,101301.38
2022-11-25T12:27:39.105Z,101302.47
2022-11-25T12:30:13.679Z,101299.31
2022-11-25T12:33:02.518Z,101292.72
2022-11-25T12:35:41.286Z,101293.78
2022-11-25T12:38:30.368Z,101297.50
2022-11-25T12:41:05.680Z,101300.28
2022-11-25T12:43:43.310Z,101294.47
2022-11-25T12:46:23.065Z,101293.03
2022-11-25T12:48:51.085Z,101295.94
2022-11-25T12:51:32.794Z,101300.53
2022-11-25T12:54:11.595Z,101301.56
2022-11-25T12:56:53.423Z,101312.09
2022-11-25T12:59:45.877Z,101306.16
2022-11-25T13:02:36.856Z,101301.03
2022-11-25T13:05:44.695Z,101298.53
2022-11-25T13:08:26.145Z,101288.28
2022-11-25T13:11:24.326Z,101302.13
2022-11-25T13:14:00.586Z,101292.66
2022-11-25T13:16:29.725Z,101299.53
2022-11-25T13:18:59.002Z,101290.94
2022-11-25T13:21:29.009Z,101291.81
2022-11-25T13:23:58.786Z,101298.84
2022-11-25T13:26:53.555Z,101303.25
2022-11-25T13:30:11.503Z,101309.25
2022-11-25T13:32:42.134Z,101310.97
2022-11-25T13:35:38.629Z,101314.38
2022-11-25T13:38:25.221Z,101314.44
2022-11-25T13:40:58.134Z,101317.09
2022-11-25T13:43:26.774Z,101317.09
2022-11-25T13:45:56.385Z,101326.63
2022-11-25T13:48:28.147Z,101327.41
2022-11-25T13:51:16.583Z,101328.19
2022-11-25T13:53:52.558Z,101332.47
2022-11-25T13:56:29.700Z,101340.22
2022-11-25T13:59:21.727Z,101340.25
2022-11-25T14:02:45.711Z,101341.09
2022-11-25T14:05:47.068Z,101341.94
2022-11-25T14:08:34.407Z,101341.94
2022-11-25T14:11:29.971Z,101348.88
2022-11-25T14:14:28.998Z,101340.38
2022-11-25T14:17:20.516Z,101340.50
2022-11-25T14:20:18.591Z,101340.38
2022-11-25T14:23:22.832Z,101345.56
2022-11-25T14:25:52.732Z,101355.09
2022-11-25T14:28:29.322Z,101349.84
2022-11-25T14:31:01.590Z,101360.13
2022-11-25T14:33:35.894Z,101361.00
2022-11-25T14:36:13.413Z,101357.50
2022-11-25T14:38:47.413Z,101368.78
2022-11-25T14:41:19.897Z,101367.16
2022-11-25T14:43:54.144Z,101370.72
2022-11-25T14:46:25.817Z,101362.88
2022-11-25T14:48:55.913Z,101362.94
2022-11-25T14:51:26.248Z,101359.53
2022-11-25T14:53:54.873Z,101372.63
2022-11-25T14:56:24.851Z,101367.50
2022-11-25T14:58:54.701Z,101374.41
2022-11-25T15:01:24.624Z,101382.19
2022-11-25T15:04:02.842Z,101384.00
2022-11-25T15:06:35.399Z,101380.63
2022-11-25T15:09:03.130Z,101391.00
2022-11-25T15:11:34.074Z,101386.69
2022-11-25T15:14:04.205Z,101392.66
2022-11-25T15:16:34.634Z,101407.34
2022-11-25T15:19:04.714Z,101395.25
2022-11-25T15:21:48.632Z,101403.91
2022-11-25T15:24:25.932Z,101403.84
2022-11-25T15:26:54.873Z,101409.09
2022-11-25T15:29:22.449Z,101403.91
2022-11-25T15:31:53.273Z,101409.03
2022-11-25T15:34:23.197Z,101408.16
2022-11-25T15:36:54.523Z,101410.81
2022-11-25T15:39:27.418Z,101406.56
2022-11-25T15:41:57.312Z,101402.25
2022-11-25T15:44:27.364Z,101414.38
2022-11-25T15:47:05.018Z,101411.84
2022-11-25T15:49:33.960Z,101411.91
2022-11-25T15:52:07.074Z,101406.84
2022-11-25T15:54:42.515Z,101406.88
2022-11-25T15:57:17.739Z,101400.16
2022-11-25T16:00:13.946Z,101399.41
2022-11-25T16:02:51.896Z,101402.97
2022-11-25T16:05:33.112Z,101413.31
2022-11-25T16:08:21.291Z,101408.16
2022-11-25T16:10:57.947Z,101409.91
2022-11-25T16:13:29.368Z,101410.72
2022-11-25T16:16:09.845Z,101407.31
2022-11-25T16:18:41.545Z,101407.31
2022-11-25T16:21:15.233Z,101416.75
2022-11-25T16:23:47.500Z,101413.31
2022-11-25T16:26:18.977Z,101407.25
2022-11-25T16:28:56.296Z,101414.16
2022-11-25T16:31:24.667Z,101411.47
2022-11-25T16:33:55.324Z,101421.88
2022-11-25T16:36:23.091Z,101420.94
2022-11-25T16:38:55.380Z,101428.78
2022-11-25T16:41:25.946Z,101420.06
2022-11-25T16:43:58.625Z,101428.72
2022-11-25T16:46:28.405Z,101423.59
2022-11-25T16:48:56.005Z,101426.19
2022-11-25T16:51:25.298Z,101427.06
2022-11-25T16:53:54.147Z,101422.81
2022-11-25T16:56:25.642Z,101427.13
2022-11-25T16:58:53.384Z,101425.44
2022-11-25T17:01:23.594Z,101425.44
2022-11-25T17:03:51.254Z,101431.47
2022-11-25T17:06:22.287Z,101428.00
2022-11-25T17:08:50.989Z,101430.56
2022-11-25T17:11:27.043Z,101437.44
2022-11-25T17:13:55.161Z,101434.78
2022-11-25T17:16:26.057Z,101439.91
2022-11-25T17:18:55.658Z,101443.34
2022-11-25T17:21:26.723Z,101436.50
2022-11-25T17:23:55.518Z,101437.31
2022-11-25T17:26:27.514Z,101449.41
2022-11-25T17:28:57.930Z,101447.69
2022-11-25T17:31:28.089Z,101452.00
2022-11-25T17:33:56.691Z,101445.88
2022-11-25T17:36:24.604Z,101451.94
2022-11-25T17:38:52.272Z,101450.19
2022-11-25T17:41:21.976Z,101457.91
2022-11-25T17:43:53.263Z,101457.00
2022-11-25T17:46:21.085Z,101456.91
2022-11-25T17:48:48.746Z,101463.88
2022-11-25T17:51:16.768Z,101458.63
2022-11-25T17:53:44.857Z,101463.81
2022-11-25T17:56:19.353Z,101471.59
2022-11-25T17:58:47.144Z,101466.41
2022-11-25T18:01:16.088Z,101476.72
2022-11-25T18:03:43.597Z,101478.47
2022-11-25T18:06:11.298Z,101470.75
2022-11-25T18:08:38.974Z,101478.59
2022-11-25T18:11:08.188Z,101469.97
2022-11-25T18:13:39.652Z,101483.75
2022-11-25T18:16:08.836Z,101478.59
2022-11-25T18:18:37.823Z,101489.78
2022-11-25T18:21:05.625Z,101483.75
2022-11-25T18:23:33.132Z,101494.97
2022-11-25T18:26:02.566Z,101489.78
2022-11-25T18:28:31.958Z,101494.97
2022-11-25T18:31:03.152Z,101494.13
2022-11-25T18:33:31.344Z,101494.97
2022-11-25T18:36:00.257Z,101496.69
2022-11-25T18:38:27.742Z,101494.13
2022-11-25T18:40:56.263Z,101500.16
2022-11-25T18:43:26.080Z,101493.34
2022-11-25T18:45:55.318Z,101495.03
2022-11-25T18:48:25.245Z,101502.84
2022-11-25T18:50:56.023Z,101503.78
2022-11-25T18:53:25.634Z,101503.78
2022-11-25T18:55:53.214Z,101508.09
2022-11-25T18:58:23.590Z,101509.00
2022-11-25T19:00:53.167Z,101518.47
2022-11-25T19:03:22.411Z,101513.28
2022-11-25T19:05:50.957Z,101512.44
2022-11-25T19:08:19.396Z,101517.56
2022-11-25T19:10:49.365Z,101521.88
2022-11-25T19:13:21.465Z,101522.69
2022-11-25T19:15:49.523Z,101529.59
2022-11-25T19:18:24.358Z,101524.41
2022-11-25T19:20:52.260Z,101526.91
2022-11-25T19:23:25.125Z,101544.22
2022-11-25T19:25:56.186Z,101543.38
2022-11-25T19:28:24.496Z,101547.66
2022-11-25T19:30:57.119Z,101541.59
2022-11-25T19:33:28.799Z,101545.88
2022-11-25T19:35:56.389Z,101553.59
2022-11-25T19:38:26.206Z,101546.66
2022-11-25T19:40:56.674Z,101554.44
2022-11-25T19:43:26.871Z,101563.16
2022-11-25T19:45:55.477Z,101570.09
2022-11-25T19:48:24.964Z,101568.41
2022-11-25T19:50:59.436Z,101575.38
2022-11-25T19:53:33.206Z,101577.97
2022-11-25T19:56:04.631Z,101568.53
2022-11-25T19:58:32.746Z,101572.06
2022-11-25T20:01:03.481Z,101579.00
2022-11-25T20:03:32.578Z,101581.66
2022-11-25T20:06:00.135Z,101587.66
2022-11-25T20:08:29.833Z,101591.16
2022-11-25T20:10:58.062Z,101598.03
2022-11-25T20:13:27.020Z,101596.22
2022-11-25T20:15:56.122Z,101601.41
2022-11-25T20:18:26.289Z,101603.94
2022-11-25T20:20:59.275Z,101601.41
2022-11-25T20:23:30.226Z,101606.59
2022-11-25T20:25:57.802Z,101607.50
2022-11-25T20:28:30.996Z,101629.09
2022-11-25T20:30:59.907Z,101615.25
2022-11-25T20:33:28.278Z,101619.50
2022-11-25T20:36:04.147Z,101622.03
2022-11-25T20:38:33.555Z,101623.75
2022-11-25T20:41:02.079Z,101626.34
2022-11-25T20:43:34.344Z,101629.78
2022-11-25T20:46:13.606Z,101634.97
2022-11-25T20:48:42.236Z,101640.09
2022-11-25T20:51:16.820Z,101640.16
2022-11-25T20:53:47.260Z,101650.41
2022-11-25T20:56:17.780Z,101644.44
2022-11-25T20:58:47.579Z,101647.88
2022-11-25T21:01:17.200Z,101648.66
2022-11-25T21:03:45.725Z,101647.72
2022-11-25T21:06:22.245Z,101657.22
2022-11-25T21:08:52.855Z,101658.81
2022-11-25T21:11:21.429Z,101658.81
2022-11-25T21:13:51.838Z,101664.00
2022-11-25T21:16:19.450Z,101668.31
2022-11-25T21:18:47.415Z,101657.03
2022-11-25T21:21:18.365Z,101663.19
2022-11-25T21:23:47.585Z,101661.38
2022-11-25T21:26:19.396Z,101665.72
2022-11-25T21:28:48.841Z,101676.88
2022-11-25T21:31:21.208Z,101676.00
2022-11-25T21:33:49.443Z,101677.69
2022-11-25T21:36:19.976Z,101682.00
2022-11-25T21:38:48.571Z,101688.84
2022-11-25T21:41:16.630Z,101681.94
2022-11-25T21:43:45.578Z,101681.06
2022-11-25T21:46:22.549Z,101684.53
2022-11-25T21:48:50.697Z,101687.91
2022-11-25T21:51:21.699Z,101688.75
2022-11-25T21:53:50.763Z,101683.56
2022-11-25T21:56:23.056Z,101688.72
2022-11-25T21:58:52.198Z,101693.00
2022-11-25T22:01:21.856Z,101682.69
2022-11-25T22:03:49.682Z,101692.16
2022-11-25T22:06:18.262Z,101699.03
2022-11-25T22:08:45.808Z,101692.09
2022-11-25T22:11:16.184Z,101700.75
2022-11-25T22:13:44.681Z,101705.06
2022-11-25T22:16:16.470Z,101715.38
2022-11-25T22:18:45.946Z,101709.31
2022-11-25T22:21:15.247Z,101710.16
2022-11-25T22:23:43.282Z,101711.00
2022-11-25T22:26:17.111Z,101711.91
2022-11-25T22:28:48.679Z,101715.38
2022-11-25T22:31:18.035Z,101713.66
2022-11-25T22:33:48.411Z,101720.50
2022-11-25T22:36:29.680Z,101727.47
2022-11-25T22:38:59.221Z,101736.03
2022-11-25T22:41:26.739Z,101735.19
2022-11-25T22:43:54.737Z,101727.38
2022-11-25T22:46:22.365Z,101734.31
2022-11-25T22:48:51.209Z,101732.50
2022-11-25T22:51:22.133Z,101748.91
2022-11-25T22:53:49.685Z,101748.91
2022-11-25T22:56:19.234Z,101741.97
2022-11-25T22:58:47.370Z,101756.63
2022-11-25T23:01:16.828Z,101759.28
2022-11-25T23:03:45.494Z,101760.00
2022-11-25T23:06:15.524Z,101754.81
2022-11-25T23:08:43.018Z,101761.78
2022-11-25T23:11:18.309Z,101764.31
2022-11-25T23:13:48.576Z,101753.94
2022-11-25T23:16:17.076Z,101756.53
2022-11-25T23:18:46.799Z,101759.13
2022-11-25T23:21:19.464Z,101767.75
2022-11-25T23:23:47.031Z,101761.66
2022-11-25T23:26:15.517Z,101762.56
2022-11-25T23:28:43.395Z,101770.28
2022-11-25T23:31:14.216Z,101764.25
2022-11-25T23:33:47.299Z,101771.16
2022-11-25T23:36:19.552Z,101776.34
2022-11-25T23:38:49.849Z,101773.75
2022-11-25T23:41:19.903Z,101774.59
2022-11-25T23:43:47.446Z,101778.81
2022-11-25T23:46:16.137Z,101786.59
2022-11-25T23:48:44.942Z,101793.50
2022-11-25T23:51:12.598Z,101794.34
2022-11-25T23:53:42.139Z,101796.09
2022-11-25T23:56:09.618Z,101796.94
2022-11-25T23:58:37.117Z,101794.34
